sensor_id;sensor_type;location;lat;lon;timestamp;P1;durP1;ratioP1;P2;durP2;ratioP2
74616;SDS011;63123;50.906;4.198;2023-03-01T00:01:23;3.97;;;3.67;;
74616;SDS011;63123;50.906;4.198;2023-03-01T00:03:50;3.45;;;3.15;;
74616;SDS011;63123;50.906;4.198;2023-03-01T00:06:16;4.78;;;4.20;;
74616;SDS011;63123;50.906;4.198;2023-03-01T00:08:42;4.45;;;4.05;;
74616;SDS011;63123;50.906;4.198;2023-03-01T00:11:09;4.80;;;4.40;;
74616;SDS011;63123;50.906;4.198;2023-03-01T00:13:38;4.43;;;4.13;;
74616;SDS011;63123;50.906;4.198;2023-03-01T00:16:05;3.95;;;3.65;;
74616;SDS011;63123;50.906;4.198;2023-03-01T00:18:32;4.43;;;4.07;;
74616;SDS011;63123;50.906;4.198;2023-03-01T00:20:58;4.00;;;3.70;;
74616;SDS011;63123;50.906;4.198;2023-03-01T00:23:24;3.88;;;3.58;;
74616;SDS011;63123;50.906;4.198;2023-03-01T00:25:50;4.05;;;3.75;;
74616;SDS011;63123;50.906;4.198;2023-03-01T00:28:16;4.40;;;4.00;;
74616;SDS011;63123;50.906;4.198;2023-03-01T00:30:41;3.95;;;3.65;;
74616;SDS011;63123;50.906;4.198;2023-03-01T00:33:07;4.50;;;4.10;;
74616;SDS011;63123;50.906;4.198;2023-03-01T00:35:33;3.47;;;3.17;;
74616;SDS011;63123;50.906;4.198;2023-03-01T00:37:58;3.80;;;3.47;;
74616;SDS011;63123;50.906;4.198;2023-03-01T00:40:25;4.18;;;3.88;;
74616;SDS011;63123;50.906;4.198;2023-03-01T00:42:51;3.83;;;3.53;;
74616;SDS011;63123;50.906;4.198;2023-03-01T00:45:17;4.18;;;3.88;;
74616;SDS011;63123;50.906;4.198;2023-03-01T00:47:43;4.05;;;3.75;;
74616;SDS011;63123;50.906;4.198;2023-03-01T00:50:08;4.88;;;4.13;;
74616;SDS011;63123;50.906;4.198;2023-03-01T00:52:34;4.30;;;4.00;;
74616;SDS011;63123;50.906;4.198;2023-03-01T00:55:00;4.72;;;4.32;;
74616;SDS011;63123;50.906;4.198;2023-03-01T00:57:26;3.92;;;3.63;;
74616;SDS011;63123;50.906;4.198;2023-03-01T00:59:51;4.90;;;4.50;;
74616;SDS011;63123;50.906;4.198;2023-03-01T01:02:17;4.05;;;3.65;;
74616;SDS011;63123;50.906;4.198;2023-03-01T01:04:44;3.78;;;3.42;;
74616;SDS011;63123;50.906;4.198;2023-03-01T01:07:10;4.22;;;3.90;;
74616;SDS011;63123;50.906;4.198;2023-03-01T01:09:36;3.78;;;3.47;;
74616;SDS011;63123;50.906;4.198;2023-03-01T01:12:01;4.28;;;3.97;;
74616;SDS011;63123;50.906;4.198;2023-03-01T01:14:27;3.53;;;3.30;;
74616;SDS011;63123;50.906;4.198;2023-03-01T01:16:53;3.83;;;3.53;;
74616;SDS011;63123;50.906;4.198;2023-03-01T01:19:19;3.67;;;3.38;;
74616;SDS011;63123;50.906;4.198;2023-03-01T01:21:44;4.32;;;3.92;;
74616;SDS011;63123;50.906;4.198;2023-03-01T01:24:10;3.75;;;3.45;;
74616;SDS011;63123;50.906;4.198;2023-03-01T01:26:36;4.10;;;3.80;;
74616;SDS011;63123;50.906;4.198;2023-03-01T01:29:03;4.07;;;3.78;;
74616;SDS011;63123;50.906;4.198;2023-03-01T01:31:29;3.80;;;3.50;;
74616;SDS011;63123;50.906;4.198;2023-03-01T01:33:56;3.80;;;3.50;;
74616;SDS011;63123;50.906;4.198;2023-03-01T01:36:23;3.70;;;3.40;;
74616;SDS011;63123;50.906;4.198;2023-03-01T01:38:49;3.70;;;3.42;;
74616;SDS011;63123;50.906;4.198;2023-03-01T01:41:15;3.85;;;3.45;;
74616;SDS011;63123;50.906;4.198;2023-03-01T01:43:42;3.85;;;3.53;;
74616;SDS011;63123;50.906;4.198;2023-03-01T01:48:55;3.42;;;3.13;;
74616;SDS011;63123;50.906;4.198;2023-03-01T01:51:28;3.60;;;3.30;;
74616;SDS011;63123;50.906;4.198;2023-03-01T01:54:06;4.13;;;3.83;;
74616;SDS011;63123;50.906;4.198;2023-03-01T01:56:37;3.60;;;3.30;;
74616;SDS011;63123;50.906;4.198;2023-03-01T01:59:07;3.72;;;3.42;;
74616;SDS011;63123;50.906;4.198;2023-03-01T02:01:33;4.10;;;3.70;;
74616;SDS011;63123;50.906;4.198;2023-03-01T02:03:59;3.90;;;3.60;;
74616;SDS011;63123;50.906;4.198;2023-03-01T02:06:29;3.70;;;3.40;;
74616;SDS011;63123;50.906;4.198;2023-03-01T02:09:11;3.75;;;3.45;;
74616;SDS011;63123;50.906;4.198;2023-03-01T02:11:39;3.78;;;3.47;;
74616;SDS011;63123;50.906;4.198;2023-03-01T02:14:05;3.78;;;3.47;;
74616;SDS011;63123;50.906;4.198;2023-03-01T02:16:31;3.47;;;3.17;;
74616;SDS011;63123;50.906;4.198;2023-03-01T02:18:57;3.72;;;3.50;;
74616;SDS011;63123;50.906;4.198;2023-03-01T02:24:05;3.75;;;3.45;;
74616;SDS011;63123;50.906;4.198;2023-03-01T02:26:54;4.65;;;3.90;;
74616;SDS011;63123;50.906;4.198;2023-03-01T02:29:22;4.03;;;3.72;;
74616;SDS011;63123;50.906;4.198;2023-03-01T02:31:48;3.53;;;3.22;;
74616;SDS011;63123;50.906;4.198;2023-03-01T02:34:17;3.63;;;3.33;;
74616;SDS011;63123;50.906;4.198;2023-03-01T02:39:26;4.22;;;3.92;;
74616;SDS011;63123;50.906;4.198;2023-03-01T02:41:56;3.65;;;3.35;;
74616;SDS011;63123;50.906;4.198;2023-03-01T02:44:23;4.30;;;3.90;;
74616;SDS011;63123;50.906;4.198;2023-03-01T02:46:53;3.85;;;3.55;;
74616;SDS011;63123;50.906;4.198;2023-03-01T02:49:24;3.63;;;3.40;;
74616;SDS011;63123;50.906;4.198;2023-03-01T02:54:24;3.55;;;3.25;;
74616;SDS011;63123;50.906;4.198;2023-03-01T02:56:58;3.83;;;3.53;;
74616;SDS011;63123;50.906;4.198;2023-03-01T02:59:27;3.58;;;3.38;;
74616;SDS011;63123;50.906;4.198;2023-03-01T03:01:56;4.38;;;4.07;;
74616;SDS011;63123;50.906;4.198;2023-03-01T03:04:21;3.65;;;3.35;;
74616;SDS011;63123;50.906;4.198;2023-03-01T03:06:48;3.63;;;3.33;;
74616;SDS011;63123;50.906;4.198;2023-03-01T03:09:15;3.55;;;3.35;;
74616;SDS011;63123;50.906;4.198;2023-03-01T03:11:41;3.55;;;3.25;;
74616;SDS011;63123;50.906;4.198;2023-03-01T03:14:08;3.70;;;3.40;;
74616;SDS011;63123;50.906;4.198;2023-03-01T03:16:41;3.97;;;3.67;;
74616;SDS011;63123;50.906;4.198;2023-03-01T03:19:12;4.43;;;4.03;;
74616;SDS011;63123;50.906;4.198;2023-03-01T03:21:38;3.30;;;3.00;;
74616;SDS011;63123;50.906;4.198;2023-03-01T03:24:04;3.83;;;3.53;;
74616;SDS011;63123;50.906;4.198;2023-03-01T03:26:30;3.58;;;3.28;;
74616;SDS011;63123;50.906;4.198;2023-03-01T03:28:56;3.90;;;3.58;;
74616;SDS011;63123;50.906;4.198;2023-03-01T03:31:22;3.65;;;3.35;;
74616;SDS011;63123;50.906;4.198;2023-03-01T03:33:48;3.63;;;3.33;;
74616;SDS011;63123;50.906;4.198;2023-03-01T03:36:16;3.40;;;3.20;;
74616;SDS011;63123;50.906;4.198;2023-03-01T03:38:43;3.95;;;3.65;;
74616;SDS011;63123;50.906;4.198;2023-03-01T03:41:10;3.50;;;3.30;;
74616;SDS011;63123;50.906;4.198;2023-03-01T03:43:37;3.88;;;3.63;;
74616;SDS011;63123;50.906;4.198;2023-03-01T03:46:05;4.35;;;3.95;;
74616;SDS011;63123;50.906;4.198;2023-03-01T03:48:35;3.92;;;3.63;;
74616;SDS011;63123;50.906;4.198;2023-03-01T03:51:02;3.33;;;3.10;;
74616;SDS011;63123;50.906;4.198;2023-03-01T03:53:30;3.63;;;3.33;;
74616;SDS011;63123;50.906;4.198;2023-03-01T03:55:56;3.70;;;3.40;;
74616;SDS011;63123;50.906;4.198;2023-03-01T03:58:23;4.05;;;3.65;;
74616;SDS011;63123;50.906;4.198;2023-03-01T04:00:51;3.60;;;3.30;;
74616;SDS011;63123;50.906;4.198;2023-03-01T04:03:18;3.70;;;3.50;;
74616;SDS011;63123;50.906;4.198;2023-03-01T04:05:44;3.70;;;3.40;;
74616;SDS011;63123;50.906;4.198;2023-03-01T04:08:11;3.25;;;2.97;;
74616;SDS011;63123;50.906;4.198;2023-03-01T04:10:38;3.40;;;3.10;;
74616;SDS011;63123;50.906;4.198;2023-03-01T04:13:05;3.35;;;3.15;;
74616;SDS011;63123;50.906;4.198;2023-03-01T04:15:32;3.65;;;3.35;;
74616;SDS011;63123;50.906;4.198;2023-03-01T04:17:58;4.00;;;3.63;;
74616;SDS011;63123;50.906;4.198;2023-03-01T04:20:25;4.05;;;3.70;;
74616;SDS011;63123;50.906;4.198;2023-03-01T04:25:50;3.40;;;3.10;;
74616;SDS011;63123;50.906;4.198;2023-03-01T04:30:46;3.22;;;3.03;;
74616;SDS011;63123;50.906;4.198;2023-03-01T04:33:12;3.30;;;3.08;;
74616;SDS011;63123;50.906;4.198;2023-03-01T04:35:38;4.28;;;3.97;;
74616;SDS011;63123;50.906;4.198;2023-03-01T04:38:05;3.40;;;3.13;;
74616;SDS011;63123;50.906;4.198;2023-03-01T04:40:31;3.33;;;3.13;;
74616;SDS011;63123;50.906;4.198;2023-03-01T04:42:57;3.80;;;3.30;;
74616;SDS011;63123;50.906;4.198;2023-03-01T04:45:23;3.42;;;3.13;;
74616;SDS011;63123;50.906;4.198;2023-03-01T04:47:49;3.58;;;3.28;;
74616;SDS011;63123;50.906;4.198;2023-03-01T04:50:17;3.70;;;3.40;;
74616;SDS011;63123;50.906;4.198;2023-03-01T04:52:48;3.67;;;3.30;;
74616;SDS011;63123;50.906;4.198;2023-03-01T04:55:14;3.55;;;3.25;;
74616;SDS011;63123;50.906;4.198;2023-03-01T04:57:40;3.90;;;3.60;;
74616;SDS011;63123;50.906;4.198;2023-03-01T05:00:07;3.38;;;3.13;;
74616;SDS011;63123;50.906;4.198;2023-03-01T05:02:45;3.80;;;3.50;;
74616;SDS011;63123;50.906;4.198;2023-03-01T05:05:22;3.22;;;3.00;;
74616;SDS011;63123;50.906;4.198;2023-03-01T05:07:57;3.97;;;3.67;;
74616;SDS011;63123;50.906;4.198;2023-03-01T05:10:25;4.03;;;3.58;;
74616;SDS011;63123;50.906;4.198;2023-03-01T05:12:51;3.83;;;3.53;;
74616;SDS011;63123;50.906;4.198;2023-03-01T05:15:18;3.67;;;3.38;;
74616;SDS011;63123;50.906;4.198;2023-03-01T05:17:44;4.10;;;3.80;;
74616;SDS011;63123;50.906;4.198;2023-03-01T05:20:10;4.05;;;3.75;;
74616;SDS011;63123;50.906;4.198;2023-03-01T05:22:36;3.53;;;3.28;;
74616;SDS011;63123;50.906;4.198;2023-03-01T05:25:02;3.30;;;3.00;;
74616;SDS011;63123;50.906;4.198;2023-03-01T05:27:29;3.85;;;3.55;;
74616;SDS011;63123;50.906;4.198;2023-03-01T05:29:55;3.95;;;3.65;;
74616;SDS011;63123;50.906;4.198;2023-03-01T05:32:21;4.28;;;3.97;;
74616;SDS011;63123;50.906;4.198;2023-03-01T05:34:47;3.28;;;3.08;;
74616;SDS011;63123;50.906;4.198;2023-03-01T05:37:12;3.60;;;3.30;;
74616;SDS011;63123;50.906;4.198;2023-03-01T05:39:38;4.30;;;3.97;;
74616;SDS011;63123;50.906;4.198;2023-03-01T05:42:04;4.45;;;4.10;;
74616;SDS011;63123;50.906;4.198;2023-03-01T05:44:30;3.75;;;3.50;;
74616;SDS011;63123;50.906;4.198;2023-03-01T05:46:56;3.38;;;3.17;;
74616;SDS011;63123;50.906;4.198;2023-03-01T05:49:22;3.58;;;3.28;;
74616;SDS011;63123;50.906;4.198;2023-03-01T05:51:51;4.00;;;3.70;;
74616;SDS011;63123;50.906;4.198;2023-03-01T05:54:18;3.75;;;3.45;;
74616;SDS011;63123;50.906;4.198;2023-03-01T05:56:44;3.53;;;3.22;;
74616;SDS011;63123;50.906;4.198;2023-03-01T05:59:10;3.83;;;3.53;;
74616;SDS011;63123;50.906;4.198;2023-03-01T06:01:36;3.60;;;3.40;;
74616;SDS011;63123;50.906;4.198;2023-03-01T06:04:02;3.35;;;3.13;;
74616;SDS011;63123;50.906;4.198;2023-03-01T06:06:29;4.22;;;3.90;;
74616;SDS011;63123;50.906;4.198;2023-03-01T06:08:55;3.35;;;3.08;;
74616;SDS011;63123;50.906;4.198;2023-03-01T06:11:21;3.00;;;2.80;;
74616;SDS011;63123;50.906;4.198;2023-03-01T06:13:46;3.78;;;3.47;;
74616;SDS011;63123;50.906;4.198;2023-03-01T06:16:13;3.72;;;3.42;;
74616;SDS011;63123;50.906;4.198;2023-03-01T06:18:39;3.70;;;3.40;;
74616;SDS011;63123;50.906;4.198;2023-03-01T06:21:05;3.35;;;3.03;;
74616;SDS011;63123;50.906;4.198;2023-03-01T06:23:32;3.20;;;2.90;;
74616;SDS011;63123;50.906;4.198;2023-03-01T06:25:58;3.10;;;2.90;;
74616;SDS011;63123;50.906;4.198;2023-03-01T06:28:24;3.88;;;3.58;;
74616;SDS011;63123;50.906;4.198;2023-03-01T06:30:50;4.85;;;3.70;;
74616;SDS011;63123;50.906;4.198;2023-03-01T06:33:17;3.22;;;2.95;;
74616;SDS011;63123;50.906;4.198;2023-03-01T06:35:45;3.65;;;3.40;;
74616;SDS011;63123;50.906;4.198;2023-03-01T06:38:11;4.00;;;3.70;;
74616;SDS011;63123;50.906;4.198;2023-03-01T06:40:39;3.30;;;3.00;;
74616;SDS011;63123;50.906;4.198;2023-03-01T06:43:05;3.78;;;3.47;;
74616;SDS011;63123;50.906;4.198;2023-03-01T06:45:32;3.25;;;2.95;;
74616;SDS011;63123;50.906;4.198;2023-03-01T06:48:02;3.28;;;3.00;;
74616;SDS011;63123;50.906;4.198;2023-03-01T06:50:31;4.43;;;3.72;;
74616;SDS011;63123;50.906;4.198;2023-03-01T06:52:57;3.58;;;3.38;;
74616;SDS011;63123;50.906;4.198;2023-03-01T06:55:23;3.38;;;3.00;;
74616;SDS011;63123;50.906;4.198;2023-03-01T06:57:53;3.75;;;3.47;;
74616;SDS011;63123;50.906;4.198;2023-03-01T07:00:23;3.57;;;3.27;;
74616;SDS011;63123;50.906;4.198;2023-03-01T07:02:49;3.80;;;3.40;;
74616;SDS011;63123;50.906;4.198;2023-03-01T07:05:15;3.78;;;3.47;;
74616;SDS011;63123;50.906;4.198;2023-03-01T07:07:41;3.75;;;3.45;;
74616;SDS011;63123;50.906;4.198;2023-03-01T07:10:06;3.42;;;3.22;;
74616;SDS011;63123;50.906;4.198;2023-03-01T07:12:32;3.90;;;3.60;;
74616;SDS011;63123;50.906;4.198;2023-03-01T07:14:58;3.60;;;3.40;;
74616;SDS011;63123;50.906;4.198;2023-03-01T07:17:24;3.95;;;3.45;;
74616;SDS011;63123;50.906;4.198;2023-03-01T07:19:49;3.72;;;3.42;;
74616;SDS011;63123;50.906;4.198;2023-03-01T07:22:15;4.00;;;3.70;;
74616;SDS011;63123;50.906;4.198;2023-03-01T07:24:41;4.15;;;3.85;;
74616;SDS011;63123;50.906;4.198;2023-03-01T07:27:07;3.60;;;3.30;;
74616;SDS011;63123;50.906;4.198;2023-03-01T07:29:33;4.30;;;3.90;;
74616;SDS011;63123;50.906;4.198;2023-03-01T07:32:01;3.85;;;3.50;;
74616;SDS011;63123;50.906;4.198;2023-03-01T07:34:27;4.60;;;4.18;;
74616;SDS011;63123;50.906;4.198;2023-03-01T07:36:52;3.97;;;3.45;;
74616;SDS011;63123;50.906;4.198;2023-03-01T07:39:18;5.28;;;4.18;;
74616;SDS011;63123;50.906;4.198;2023-03-01T07:41:43;4.20;;;3.80;;
74616;SDS011;63123;50.906;4.198;2023-03-01T07:44:09;3.63;;;3.33;;
74616;SDS011;63123;50.906;4.198;2023-03-01T07:46:36;4.68;;;4.30;;
74616;SDS011;63123;50.906;4.198;2023-03-01T07:49:02;4.45;;;4.05;;
74616;SDS011;63123;50.906;4.198;2023-03-01T07:51:27;5.05;;;4.55;;
74616;SDS011;63123;50.906;4.198;2023-03-01T07:53:53;4.18;;;3.78;;
74616;SDS011;63123;50.906;4.198;2023-03-01T07:56:18;6.30;;;4.30;;
74616;SDS011;63123;50.906;4.198;2023-03-01T07:58:45;4.53;;;4.13;;
74616;SDS011;63123;50.906;4.198;2023-03-01T08:01:12;5.28;;;4.45;;
74616;SDS011;63123;50.906;4.198;2023-03-01T08:03:40;4.90;;;4.40;;
74616;SDS011;63123;50.906;4.198;2023-03-01T08:06:07;4.40;;;4.00;;
74616;SDS011;63123;50.906;4.198;2023-03-01T08:08:33;5.22;;;4.65;;
74616;SDS011;63123;50.906;4.198;2023-03-01T08:11:01;4.68;;;3.90;;
74616;SDS011;63123;50.906;4.198;2023-03-01T08:13:28;5.95;;;4.43;;
74616;SDS011;63123;50.906;4.198;2023-03-01T08:15:54;5.75;;;4.32;;
74616;SDS011;63123;50.906;4.198;2023-03-01T08:18:20;5.22;;;4.38;;
74616;SDS011;63123;50.906;4.198;2023-03-01T08:20:46;4.93;;;4.45;;
74616;SDS011;63123;50.906;4.198;2023-03-01T08:23:12;4.70;;;4.22;;
74616;SDS011;63123;50.906;4.198;2023-03-01T08:25:38;5.13;;;4.63;;
74616;SDS011;63123;50.906;4.198;2023-03-01T08:28:04;5.13;;;4.43;;
74616;SDS011;63123;50.906;4.198;2023-03-01T08:30:30;5.72;;;5.18;;
74616;SDS011;63123;50.906;4.198;2023-03-01T08:32:55;5.63;;;5.18;;
74616;SDS011;63123;50.906;4.198;2023-03-01T08:35:21;5.80;;;4.47;;
74616;SDS011;63123;50.906;4.198;2023-03-01T08:37:47;5.70;;;4.15;;
74616;SDS011;63123;50.906;4.198;2023-03-01T08:40:13;5.22;;;4.68;;
74616;SDS011;63123;50.906;4.198;2023-03-01T08:42:39;5.22;;;4.03;;
74616;SDS011;63123;50.906;4.198;2023-03-01T08:45:06;5.75;;;4.13;;
74616;SDS011;63123;50.906;4.198;2023-03-01T08:47:32;5.13;;;3.95;;
74616;SDS011;63123;50.906;4.198;2023-03-01T08:50:01;5.28;;;4.78;;
74616;SDS011;63123;50.906;4.198;2023-03-01T08:52:27;4.95;;;4.03;;
74616;SDS011;63123;50.906;4.198;2023-03-01T08:54:55;4.93;;;4.40;;
74616;SDS011;63123;50.906;4.198;2023-03-01T08:57:21;4.75;;;4.25;;
74616;SDS011;63123;50.906;4.198;2023-03-01T08:59:47;5.30;;;4.80;;
74616;SDS011;63123;50.906;4.198;2023-03-01T09:02:14;5.05;;;4.15;;
74616;SDS011;63123;50.906;4.198;2023-03-01T09:04:42;5.28;;;4.25;;
74616;SDS011;63123;50.906;4.198;2023-03-01T09:07:08;5.57;;;4.55;;
74616;SDS011;63123;50.906;4.198;2023-03-01T09:09:34;4.28;;;3.88;;
74616;SDS011;63123;50.906;4.198;2023-03-01T09:12:00;6.95;;;4.95;;
74616;SDS011;63123;50.906;4.198;2023-03-01T09:14:27;6.43;;;5.18;;
74616;SDS011;63123;50.906;4.198;2023-03-01T09:16:53;4.60;;;4.10;;
74616;SDS011;63123;50.906;4.198;2023-03-01T09:19:18;6.65;;;4.78;;
74616;SDS011;63123;50.906;4.198;2023-03-01T09:21:44;5.22;;;4.38;;
74616;SDS011;63123;50.906;4.198;2023-03-01T09:24:20;7.07;;;5.07;;
74616;SDS011;63123;50.906;4.198;2023-03-01T09:26:46;5.43;;;4.93;;
74616;SDS011;63123;50.906;4.198;2023-03-01T09:29:12;5.13;;;4.53;;
74616;SDS011;63123;50.906;4.198;2023-03-01T09:31:39;5.13;;;4.70;;
74616;SDS011;63123;50.906;4.198;2023-03-01T09:34:05;6.03;;;4.70;;
74616;SDS011;63123;50.906;4.198;2023-03-01T09:36:30;5.47;;;4.75;;
74616;SDS011;63123;50.906;4.198;2023-03-01T09:38:57;4.75;;;4.10;;
74616;SDS011;63123;50.906;4.198;2023-03-01T09:41:46;4.65;;;4.25;;
74616;SDS011;63123;50.906;4.198;2023-03-01T09:46:56;4.18;;;3.45;;
74616;SDS011;63123;50.906;4.198;2023-03-01T09:49:27;5.25;;;4.70;;
74616;SDS011;63123;50.906;4.198;2023-03-01T09:54:23;5.72;;;4.88;;
74616;SDS011;63123;50.906;4.198;2023-03-01T10:02:24;4.45;;;4.05;;
74616;SDS011;63123;50.906;4.198;2023-03-01T10:05:09;5.05;;;4.43;;
74616;SDS011;63123;50.906;4.198;2023-03-01T10:07:55;5.03;;;4.53;;
74616;SDS011;63123;50.906;4.198;2023-03-01T10:10:39;5.25;;;4.75;;
74616;SDS011;63123;50.906;4.198;2023-03-01T10:15:52;5.03;;;4.50;;
74616;SDS011;63123;50.906;4.198;2023-03-01T10:18:30;5.60;;;5.00;;
74616;SDS011;63123;50.906;4.198;2023-03-01T10:20:59;4.95;;;4.47;;
74616;SDS011;63123;50.906;4.198;2023-03-01T10:23:27;5.18;;;4.68;;
74616;SDS011;63123;50.906;4.198;2023-03-01T10:28:48;5.40;;;4.90;;
74616;SDS011;63123;50.906;4.198;2023-03-01T10:31:24;5.38;;;4.88;;
74616;SDS011;63123;50.906;4.198;2023-03-01T10:34:02;5.80;;;4.38;;
74616;SDS011;63123;50.906;4.198;2023-03-01T10:36:32;5.38;;;4.60;;
74616;SDS011;63123;50.906;4.198;2023-03-01T10:38:58;5.82;;;4.80;;
74616;SDS011;63123;50.906;4.198;2023-03-01T10:41:25;5.07;;;3.97;;
74616;SDS011;63123;50.906;4.198;2023-03-01T10:43:53;4.00;;;3.60;;
74616;SDS011;63123;50.906;4.198;2023-03-01T10:46:27;4.85;;;4.30;;
74616;SDS011;63123;50.906;4.198;2023-03-01T10:51:40;5.05;;;4.28;;
74616;SDS011;63123;50.906;4.198;2023-03-01T10:54:15;4.72;;;4.15;;
74616;SDS011;63123;50.906;4.198;2023-03-01T10:56:47;4.78;;;4.38;;
74616;SDS011;63123;50.906;4.198;2023-03-01T10:59:33;5.68;;;5.00;;
74616;SDS011;63123;50.906;4.198;2023-03-01T11:05:13;4.85;;;4.38;;
74616;SDS011;63123;50.906;4.198;2023-03-01T11:07:54;4.40;;;4.00;;
74616;SDS011;63123;50.906;4.198;2023-03-01T11:10:28;5.13;;;4.70;;
74616;SDS011;63123;50.906;4.198;2023-03-01T11:16:01;4.93;;;4.43;;
74616;SDS011;63123;50.906;4.198;2023-03-01T11:18:29;4.40;;;3.83;;
74616;SDS011;63123;50.906;4.198;2023-03-01T11:20:55;4.60;;;4.13;;
74616;SDS011;63123;50.906;4.198;2023-03-01T11:23:24;4.57;;;4.18;;
74616;SDS011;63123;50.906;4.198;2023-03-01T11:25:56;4.72;;;3.95;;
74616;SDS011;63123;50.906;4.198;2023-03-01T11:28:27;4.45;;;4.05;;
74616;SDS011;63123;50.906;4.198;2023-03-01T11:30:56;5.47;;;4.95;;
74616;SDS011;63123;50.906;4.198;2023-03-01T11:33:42;5.53;;;4.82;;
74616;SDS011;63123;50.906;4.198;2023-03-01T11:36:32;4.95;;;3.90;;
74616;SDS011;63123;50.906;4.198;2023-03-01T11:39:05;4.60;;;4.20;;
74616;SDS011;63123;50.906;4.198;2023-03-01T11:41:44;4.20;;;3.80;;
74616;SDS011;63123;50.906;4.198;2023-03-01T11:44:22;4.95;;;4.25;;
74616;SDS011;63123;50.906;4.198;2023-03-01T11:58:01;4.15;;;3.75;;
74616;SDS011;63123;50.906;4.198;2023-03-01T12:01:03;4.57;;;3.88;;
74616;SDS011;63123;50.906;4.198;2023-03-01T12:20:13;4.30;;;3.90;;
74616;SDS011;63123;50.906;4.198;2023-03-01T12:25:21;4.35;;;3.95;;
74616;SDS011;63123;50.906;4.198;2023-03-01T12:28:09;3.88;;;3.58;;
74616;SDS011;63123;50.906;4.198;2023-03-01T12:38:49;4.05;;;3.65;;
74616;SDS011;63123;50.906;4.198;2023-03-01T12:44:29;4.78;;;4.38;;
74616;SDS011;63123;50.906;4.198;2023-03-01T12:50:04;3.85;;;3.55;;
74616;SDS011;63123;50.906;4.198;2023-03-01T12:58:04;3.90;;;3.45;;
74616;SDS011;63123;50.906;4.198;2023-03-01T13:00:50;3.95;;;3.65;;
74616;SDS011;63123;50.906;4.198;2023-03-01T13:03:25;3.80;;;3.50;;
74616;SDS011;63123;50.906;4.198;2023-03-01T13:06:32;3.70;;;3.40;;
74616;SDS011;63123;50.906;4.198;2023-03-01T13:11:56;4.05;;;3.65;;
74616;SDS011;63123;50.906;4.198;2023-03-01T13:16:48;3.47;;;3.08;;
74616;SDS011;63123;50.906;4.198;2023-03-01T13:19:19;4.63;;;4.18;;
74616;SDS011;63123;50.906;4.198;2023-03-01T13:21:49;4.55;;;3.42;;
74616;SDS011;63123;50.906;4.198;2023-03-01T13:24:38;4.15;;;3.75;;
74616;SDS011;63123;50.906;4.198;2023-03-01T13:29:43;3.60;;;3.20;;
74616;SDS011;63123;50.906;4.198;2023-03-01T13:32:20;3.80;;;3.50;;
74616;SDS011;63123;50.906;4.198;2023-03-01T13:34:53;3.78;;;3.00;;
74616;SDS011;63123;50.906;4.198;2023-03-01T13:37:21;3.70;;;3.40;;
74616;SDS011;63123;50.906;4.198;2023-03-01T13:39:55;3.70;;;3.40;;
74616;SDS011;63123;50.906;4.198;2023-03-01T13:45:13;5.85;;;4.45;;
74616;SDS011;63123;50.906;4.198;2023-03-01T13:47:44;4.25;;;3.85;;
74616;SDS011;63123;50.906;4.198;2023-03-01T13:50:18;3.47;;;3.17;;
74616;SDS011;63123;50.906;4.198;2023-03-01T13:52:48;3.90;;;3.60;;
74616;SDS011;63123;50.906;4.198;2023-03-01T13:55:27;3.47;;;3.17;;
74616;SDS011;63123;50.906;4.198;2023-03-01T14:01:03;4.68;;;3.63;;
74616;SDS011;63123;50.906;4.198;2023-03-01T14:03:31;3.97;;;3.63;;
74616;SDS011;63123;50.906;4.198;2023-03-01T14:06:32;3.50;;;3.20;;
74616;SDS011;63123;50.906;4.198;2023-03-01T14:09:00;4.63;;;4.22;;
74616;SDS011;63123;50.906;4.198;2023-03-01T14:11:50;4.32;;;3.90;;
74616;SDS011;63123;50.906;4.198;2023-03-01T14:25:14;3.40;;;3.10;;
74616;SDS011;63123;50.906;4.198;2023-03-01T14:27:44;4.00;;;3.60;;
74616;SDS011;63123;50.906;4.198;2023-03-01T14:30:23;3.90;;;3.45;;
74616;SDS011;63123;50.906;4.198;2023-03-01T14:32:55;3.53;;;3.22;;
74616;SDS011;63123;50.906;4.198;2023-03-01T14:35:23;3.70;;;3.40;;
74616;SDS011;63123;50.906;4.198;2023-03-01T14:37:51;4.00;;;3.70;;
74616;SDS011;63123;50.906;4.198;2023-03-01T14:40:24;4.28;;;3.85;;
74616;SDS011;63123;50.906;4.198;2023-03-01T14:42:52;3.97;;;3.55;;
74616;SDS011;63123;50.906;4.198;2023-03-01T14:45:20;4.25;;;3.95;;
74616;SDS011;63123;50.906;4.198;2023-03-01T14:47:46;3.97;;;3.67;;
74616;SDS011;63123;50.906;4.198;2023-03-01T14:52:59;3.70;;;3.40;;
74616;SDS011;63123;50.906;4.198;2023-03-01T14:55:29;4.18;;;3.88;;
74616;SDS011;63123;50.906;4.198;2023-03-01T14:58:03;3.80;;;3.50;;
74616;SDS011;63123;50.906;4.198;2023-03-01T15:00:30;3.95;;;3.60;;
74616;SDS011;63123;50.906;4.198;2023-03-01T15:03:00;3.42;;;3.05;;
74616;SDS011;63123;50.906;4.198;2023-03-01T15:05:38;3.83;;;3.53;;
74616;SDS011;63123;50.906;4.198;2023-03-01T15:08:05;3.95;;;3.65;;
74616;SDS011;63123;50.906;4.198;2023-03-01T15:10:34;3.42;;;3.17;;
74616;SDS011;63123;50.906;4.198;2023-03-01T15:13:14;3.38;;;2.78;;
74616;SDS011;63123;50.906;4.198;2023-03-01T15:15:47;3.88;;;3.30;;
74616;SDS011;63123;50.906;4.198;2023-03-01T15:20:42;4.38;;;3.97;;
74616;SDS011;63123;50.906;4.198;2023-03-01T15:23:25;3.70;;;3.40;;
74616;SDS011;63123;50.906;4.198;2023-03-01T15:25:55;3.63;;;3.33;;
74616;SDS011;63123;50.906;4.198;2023-03-01T15:41:55;4.18;;;3.78;;
74616;SDS011;63123;50.906;4.198;2023-03-01T15:46:51;4.55;;;4.10;;
74616;SDS011;63123;50.906;4.198;2023-03-01T15:49:27;3.75;;;3.30;;
74616;SDS011;63123;50.906;4.198;2023-03-01T15:52:18;3.88;;;3.30;;
74616;SDS011;63123;50.906;4.198;2023-03-01T15:54:53;3.75;;;3.40;;
74616;SDS011;63123;50.906;4.198;2023-03-01T15:57:27;4.28;;;3.88;;
74616;SDS011;63123;50.906;4.198;2023-03-01T15:59:53;4.93;;;4.38;;
74616;SDS011;63123;50.906;4.198;2023-03-01T16:02:18;4.03;;;3.50;;
74616;SDS011;63123;50.906;4.198;2023-03-01T16:04:46;4.25;;;3.88;;
74616;SDS011;63123;50.906;4.198;2023-03-01T16:07:13;5.05;;;4.55;;
74616;SDS011;63123;50.906;4.198;2023-03-01T16:09:39;4.07;;;3.72;;
74616;SDS011;63123;50.906;4.198;2023-03-01T16:12:05;4.65;;;4.18;;
74616;SDS011;63123;50.906;4.198;2023-03-01T16:14:34;4.22;;;3.83;;
74616;SDS011;63123;50.906;4.198;2023-03-01T16:17:00;3.70;;;3.40;;
74616;SDS011;63123;50.906;4.198;2023-03-01T16:19:25;4.40;;;4.00;;
74616;SDS011;63123;50.906;4.198;2023-03-01T16:21:51;4.10;;;3.80;;
74616;SDS011;63123;50.906;4.198;2023-03-01T16:24:17;3.85;;;3.55;;
74616;SDS011;63123;50.906;4.198;2023-03-01T16:26:42;5.07;;;4.68;;
74616;SDS011;63123;50.906;4.198;2023-03-01T16:29:08;3.97;;;3.67;;
74616;SDS011;63123;50.906;4.198;2023-03-01T16:31:34;5.22;;;3.90;;
74616;SDS011;63123;50.906;4.198;2023-03-01T16:33:59;4.25;;;3.72;;
74616;SDS011;63123;50.906;4.198;2023-03-01T16:36:25;4.72;;;4.25;;
74616;SDS011;63123;50.906;4.198;2023-03-01T16:38:53;4.03;;;3.72;;
74616;SDS011;63123;50.906;4.198;2023-03-01T16:41:20;4.85;;;4.35;;
74616;SDS011;63123;50.906;4.198;2023-03-01T16:43:47;4.00;;;3.60;;
74616;SDS011;63123;50.906;4.198;2023-03-01T16:46:27;3.60;;;3.25;;
74616;SDS011;63123;50.906;4.198;2023-03-01T16:48:54;4.32;;;3.58;;
74616;SDS011;63123;50.906;4.198;2023-03-01T16:51:20;4.10;;;3.70;;
74616;SDS011;63123;50.906;4.198;2023-03-01T16:53:47;3.47;;;3.17;;
74616;SDS011;63123;50.906;4.198;2023-03-01T16:56:14;4.18;;;3.80;;
74616;SDS011;63123;50.906;4.198;2023-03-01T16:58:40;3.90;;;3.25;;
74616;SDS011;63123;50.906;4.198;2023-03-01T17:03:37;3.50;;;3.20;;
74616;SDS011;63123;50.906;4.198;2023-03-01T17:06:08;3.65;;;3.35;;
74616;SDS011;63123;50.906;4.198;2023-03-01T17:08:35;4.40;;;4.05;;
74616;SDS011;63123;50.906;4.198;2023-03-01T17:11:09;3.85;;;3.55;;
74616;SDS011;63123;50.906;4.198;2023-03-01T17:13:37;4.03;;;3.65;;
74616;SDS011;63123;50.906;4.198;2023-03-01T17:16:05;4.15;;;3.45;;
74616;SDS011;63123;50.906;4.198;2023-03-01T17:18:32;4.38;;;3.97;;